Kenwood, Ohio
Current Conditions -  °F | °C
As of 9:53 AM on Sunday 21 Dec 2014 (Local Time) from KLUK Reporting Station
Haze Haze  
Wind Chill: 24°   Ceiling: 1800
Heat Index: 30°   Visibility: 6mi
Dew Point: 25°   Wind: 6mph
Humidity: 82%   Direction: 110°ESE
Pressure: 30.35"   Gusts: NA
Location:  39.2094°N, 84.3952°W
Report Text: KLUK 211453Z 11005KT 6SM HZ OVC018 M01/M04 A3035 RMK AO2 SLP283 T10111039 53006
Loading
Personal Weather Stations






























Interactive Weather Map New forecast layout! Learn more

10-Day Weather Forecast

Advertisements
Track Severe Weather on mobile